createdAt,value
2019-05-21T00:00:26.482Z,28.10
2019-05-21T00:02:56.261Z,27.57
2019-05-21T00:13:30.078Z,27.77
2019-05-21T00:16:00.564Z,28.07
2019-05-21T00:18:31.117Z,28.00
2019-05-21T00:21:01.552Z,27.60
2019-05-21T00:23:31.947Z,29.73
2019-05-21T00:26:02.435Z,29.42
2019-05-21T00:28:38.183Z,28.33
2019-05-21T00:31:44.653Z,29.17
2019-05-21T00:34:51.221Z,28.35
2019-05-21T00:37:58.783Z,29.60
2019-05-21T00:41:06.016Z,31.17
2019-05-21T00:43:46.457Z,29.37
2019-05-21T00:46:16.714Z,29.87
2019-05-21T00:48:47.304Z,31.25
2019-05-21T00:51:18.033Z,30.40
2019-05-21T00:53:48.726Z,30.57
2019-05-21T00:56:19.255Z,31.97
2019-05-21T00:58:49.447Z,32.47
2019-05-21T01:01:19.903Z,30.65
2019-05-21T01:03:50.400Z,30.77
2019-05-21T01:06:20.861Z,32.35
2019-05-21T01:08:51.328Z,30.23
2019-05-21T01:11:22.106Z,31.85
2019-05-21T01:13:52.551Z,29.80
2019-05-21T01:16:23.955Z,29.18
2019-05-21T01:18:54.514Z,29.23
2019-05-21T01:21:26.074Z,28.98
2019-05-21T01:23:56.561Z,29.52
2019-05-21T01:26:27.095Z,30.10
2019-05-21T01:28:57.520Z,29.45
2019-05-21T01:31:28.230Z,28.70
2019-05-21T01:33:58.842Z,28.17
2019-05-21T01:36:30.699Z,26.40
2019-05-21T01:39:01.201Z,25.20
2019-05-21T01:41:32.846Z,25.00
2019-05-21T01:44:03.518Z,25.55
2019-05-21T01:46:34.021Z,24.85
2019-05-21T01:49:04.599Z,25.00
2019-05-21T01:51:35.491Z,25.55
2019-05-21T01:54:05.973Z,25.27
2019-05-21T01:56:36.423Z,25.32
2019-05-21T01:59:06.855Z,23.27
2019-05-21T02:01:38.025Z,24.10
2019-05-21T02:04:08.898Z,23.77
2019-05-21T02:06:39.527Z,23.05
2019-05-21T02:09:10.189Z,23.25
2019-05-21T02:11:40.992Z,23.40
2019-05-21T02:14:11.730Z,23.07
2019-05-21T02:16:42.286Z,22.60
2019-05-21T02:19:15.734Z,22.95
2019-05-21T02:21:46.481Z,21.73
2019-05-21T02:24:17.021Z,22.82
2019-05-21T02:26:47.591Z,23.00
2019-05-21T02:29:18.146Z,22.73
2019-05-21T02:31:48.734Z,22.55
2019-05-21T02:34:19.534Z,22.93
2019-05-21T02:36:50.160Z,22.60
2019-05-21T02:39:20.762Z,22.50
2019-05-21T02:41:51.281Z,23.70
2019-05-21T02:44:22.294Z,23.52
2019-05-21T02:46:53.217Z,25.43
2019-05-21T02:49:23.750Z,23.00
2019-05-21T02:51:54.332Z,24.85
2019-05-21T02:54:40.349Z,24.18
2019-05-21T02:56:57.445Z,25.37
2019-05-21T02:59:27.906Z,24.65
2019-05-21T03:02:04.454Z,23.80
2019-05-21T03:04:34.958Z,25.43
2019-05-21T03:07:20.587Z,24.80
2019-05-21T03:09:51.167Z,24.12
2019-05-21T03:12:22.645Z,23.70
2019-05-21T03:14:53.295Z,23.65
2019-05-21T03:17:23.842Z,24.30
2019-05-21T03:19:54.363Z,24.18
2019-05-21T03:22:25.404Z,23.70
2019-05-21T03:24:55.931Z,25.43
2019-05-21T03:27:26.726Z,24.25
2019-05-21T03:29:57.483Z,23.32
2019-05-21T03:32:27.979Z,23.42
2019-05-21T03:34:58.425Z,24.32
2019-05-21T03:37:28.947Z,23.50
2019-05-21T03:40:00.261Z,24.60
2019-05-21T03:42:30.778Z,25.45
2019-05-21T03:45:01.416Z,25.75
2019-05-21T03:47:32.146Z,29.00
2019-05-21T03:50:02.734Z,31.85
2019-05-21T03:52:33.692Z,24.72
2019-05-21T03:55:04.569Z,23.52
2019-05-21T03:57:35.238Z,23.83
2019-05-21T04:00:07.561Z,22.20
2019-05-21T04:02:38.114Z,23.77
2019-05-21T04:05:35.320Z,22.32
2019-05-21T04:08:05.652Z,23.27
2019-05-21T04:10:36.075Z,22.65
2019-05-21T04:13:07.337Z,24.10
2019-05-21T04:15:46.685Z,25.85
2019-05-21T04:18:22.995Z,26.15
2019-05-21T04:20:53.475Z,22.02
2019-05-21T04:23:24.515Z,22.00
2019-05-21T04:25:55.000Z,20.20
2019-05-21T04:28:25.242Z,20.93
2019-05-21T04:30:55.646Z,20.17
2019-05-21T04:33:26.490Z,18.93
2019-05-21T04:35:57.123Z,18.73
2019-05-21T04:38:27.694Z,17.92
2019-05-21T04:40:57.923Z,18.10
2019-05-21T04:43:28.478Z,19.70
2019-05-21T04:45:58.951Z,19.20
2019-05-21T04:48:29.119Z,18.33
2019-05-21T04:50:59.670Z,23.00
2019-05-21T04:53:30.089Z,20.80
2019-05-21T04:56:00.422Z,18.50
2019-05-21T04:58:30.623Z,19.20
2019-05-21T05:01:00.896Z,18.60
2019-05-21T05:03:31.264Z,19.60
2019-05-21T05:06:01.879Z,18.40
2019-05-21T05:08:33.055Z,18.80
2019-05-21T05:11:04.862Z,19.77
2019-05-21T05:13:39.172Z,19.47
2019-05-21T05:16:12.628Z,20.77
2019-05-21T05:18:48.756Z,19.20
2019-05-21T05:21:19.239Z,19.00
2019-05-21T05:23:56.140Z,17.60
2019-05-21T05:26:56.796Z,18.57
2019-05-21T05:29:28.538Z,18.73
2019-05-21T05:31:59.211Z,17.80
2019-05-21T05:34:29.477Z,16.40
2019-05-21T05:37:01.096Z,18.20
2019-05-21T05:39:31.434Z,16.70
2019-05-21T05:42:01.681Z,15.13
2019-05-21T05:44:31.944Z,14.30
2019-05-21T05:47:02.471Z,13.07
2019-05-21T05:49:37.896Z,14.00
2019-05-21T05:52:08.087Z,13.40
2019-05-21T05:54:38.311Z,14.00
2019-05-21T05:57:08.662Z,14.60
2019-05-21T05:59:38.896Z,13.90
2019-05-21T06:02:09.041Z,13.03
2019-05-21T06:04:39.856Z,13.20
2019-05-21T06:07:10.087Z,13.00
2019-05-21T06:09:40.353Z,13.17
2019-05-21T06:12:10.590Z,13.23
2019-05-21T06:14:40.877Z,12.80
2019-05-21T06:17:11.138Z,11.77
2019-05-21T06:19:41.759Z,12.50
2019-05-21T06:22:11.988Z,12.27
2019-05-21T06:24:42.194Z,12.40
2019-05-21T06:27:12.414Z,11.87
2019-05-21T06:29:42.675Z,11.60
2019-05-21T06:32:12.933Z,14.80
2019-05-21T06:34:43.065Z,12.13
2019-05-21T06:37:13.373Z,11.80
2019-05-21T06:39:43.583Z,11.53
2019-05-21T06:42:13.806Z,12.03
2019-05-21T06:44:44.077Z,12.63
2019-05-21T06:47:14.270Z,12.20
2019-05-21T06:49:44.810Z,11.17
2019-05-21T06:52:15.122Z,10.07
2019-05-21T06:54:45.389Z,10.60
2019-05-21T06:57:15.992Z,9.90
2019-05-21T06:59:46.309Z,9.23
2019-05-21T07:02:16.601Z,9.77
2019-05-21T07:04:47.124Z,9.97
2019-05-21T07:07:17.245Z,8.90
2019-05-21T07:09:47.483Z,8.90
2019-05-21T07:12:17.743Z,9.27
2019-05-21T07:14:48.284Z,10.00
2019-05-21T07:17:18.509Z,9.20
2019-05-21T07:19:48.802Z,9.47
2019-05-21T07:22:19.217Z,8.20
2019-05-21T07:24:49.387Z,9.30
2019-05-21T07:27:19.818Z,9.57
2019-05-21T07:29:50.101Z,9.20
2019-05-21T07:32:20.350Z,8.97
2019-05-21T07:34:50.646Z,7.80
2019-05-21T07:37:21.322Z,7.23
2019-05-21T07:39:51.585Z,7.90
2019-05-21T07:42:21.694Z,8.10
2019-05-21T07:44:51.823Z,7.23
2019-05-21T07:47:22.579Z,7.60
2019-05-21T07:49:52.761Z,7.10
2019-05-21T07:52:22.933Z,6.60
2019-05-21T07:54:53.126Z,7.20
2019-05-21T07:57:23.499Z,7.43
2019-05-21T07:59:54.753Z,7.43
2019-05-21T08:02:24.918Z,7.20
2019-05-21T08:04:55.247Z,7.10
2019-05-21T08:07:25.749Z,7.20
2019-05-21T08:09:55.893Z,7.37
2019-05-21T08:12:38.154Z,6.43
2019-05-21T08:14:58.257Z,6.53
2019-05-21T08:17:28.466Z,5.97
2019-05-21T08:20:08.743Z,6.07
2019-05-21T08:22:30.548Z,5.50
2019-05-21T08:25:00.772Z,5.43
2019-05-21T08:27:31.010Z,10.77
2019-05-21T08:30:01.279Z,5.20
2019-05-21T08:32:31.851Z,6.20
2019-05-21T08:35:02.290Z,5.50
2019-05-21T08:37:32.984Z,5.37
2019-05-21T08:40:03.247Z,5.90
2019-05-21T08:42:33.437Z,5.40
2019-05-21T08:45:04.234Z,5.90
2019-05-21T08:47:34.575Z,6.00
2019-05-21T08:50:05.776Z,4.83
2019-05-21T08:52:36.276Z,5.40
2019-05-21T08:55:06.863Z,4.50
2019-05-21T08:57:37.228Z,4.33
2019-05-21T09:00:08.924Z,4.90
2019-05-21T09:02:39.179Z,5.00
2019-05-21T09:05:09.652Z,4.67
2019-05-21T09:07:39.941Z,4.53
2019-05-21T09:10:11.421Z,4.17
2019-05-21T09:12:42.074Z,4.53
2019-05-21T09:15:15.064Z,4.47
2019-05-21T09:17:47.681Z,3.80
2019-05-21T09:20:18.773Z,3.90
2019-05-21T09:22:48.981Z,4.53
2019-05-21T09:25:19.386Z,4.40
2019-05-21T09:27:49.871Z,3.90
2019-05-21T09:30:21.666Z,3.97
2019-05-21T09:32:54.170Z,4.10
2019-05-21T09:35:24.431Z,4.40
2019-05-21T09:37:54.681Z,4.67
2019-05-21T09:40:25.424Z,4.07
2019-05-21T09:42:55.616Z,4.30
2019-05-21T09:45:27.447Z,4.33
2019-05-21T09:47:57.731Z,4.27
2019-05-21T09:50:28.935Z,4.13
2019-05-21T09:52:59.517Z,5.53
2019-05-21T09:55:33.623Z,5.77
2019-05-21T09:58:22.049Z,4.27
2019-05-21T10:01:12.484Z,4.30
2019-05-21T10:03:44.476Z,4.70
2019-05-21T10:06:15.072Z,4.60
2019-05-21T10:08:47.080Z,5.37
2019-05-21T10:11:17.763Z,5.40
2019-05-21T10:13:48.075Z,4.13
2019-05-21T10:16:18.310Z,4.57
2019-05-21T10:18:49.269Z,5.40
2019-05-21T10:21:19.900Z,4.13
2019-05-21T10:23:51.322Z,4.60
2019-05-21T10:26:21.619Z,4.30
2019-05-21T10:28:52.954Z,4.20
2019-05-21T10:31:23.159Z,4.70
2019-05-21T10:33:53.350Z,4.90
2019-05-21T10:36:23.779Z,5.77
2019-05-21T10:38:54.213Z,4.53
2019-05-21T10:41:24.682Z,4.47
2019-05-21T10:43:55.032Z,4.97
2019-05-21T10:46:25.746Z,4.33
2019-05-21T10:48:56.631Z,3.43
2019-05-21T10:51:26.813Z,3.90
2019-05-21T10:53:57.476Z,3.63
2019-05-21T10:56:27.823Z,4.43
2019-05-21T10:58:58.035Z,4.37
2019-05-21T11:01:45.340Z,4.50
2019-05-21T11:04:34.672Z,5.30
2019-05-21T11:07:05.628Z,6.07
2019-05-21T11:09:36.351Z,4.40
2019-05-21T11:12:08.158Z,6.47
2019-05-21T11:14:38.540Z,5.00
2019-05-21T11:17:12.852Z,42.33
2019-05-21T11:19:43.012Z,21.17
2019-05-21T11:22:13.507Z,5.30
2019-05-21T11:24:43.649Z,7.97
2019-05-21T11:27:14.113Z,18.07
2019-05-21T11:29:44.298Z,28.03
2019-05-21T11:32:15.562Z,6.20
2019-05-21T11:34:49.634Z,13.37
2019-05-21T11:37:17.799Z,5.17
2019-05-21T11:39:48.346Z,5.10
2019-05-21T11:42:18.753Z,10.97
2019-05-21T11:44:49.079Z,5.40
2019-05-21T11:47:19.650Z,10.43
2019-05-21T11:49:50.195Z,12.30
2019-05-21T11:52:20.568Z,6.90
2019-05-21T11:54:50.866Z,5.77
2019-05-21T11:57:21.080Z,5.37
2019-05-21T11:59:51.199Z,9.83
2019-05-21T12:02:21.463Z,4.77
2019-05-21T12:04:51.800Z,4.40
2019-05-21T12:07:22.049Z,4.60
2019-05-21T12:09:52.403Z,4.97
2019-05-21T12:12:23.618Z,3.90
2019-05-21T12:14:53.838Z,4.30
2019-05-21T12:17:24.013Z,4.20
2019-05-21T12:19:54.588Z,4.83
2019-05-21T12:22:24.910Z,4.40
2019-05-21T12:24:55.292Z,5.43
2019-05-21T12:27:25.623Z,5.37
2019-05-21T12:29:55.979Z,4.63
2019-05-21T12:32:26.440Z,4.60
2019-05-21T12:34:57.169Z,4.50
2019-05-21T12:37:27.565Z,15.23
2019-05-21T12:39:58.214Z,3.83
2019-05-21T12:42:29.027Z,4.40
2019-05-21T12:45:00.306Z,3.80
2019-05-21T12:47:31.107Z,4.43
2019-05-21T12:50:01.632Z,5.13
2019-05-21T12:52:33.956Z,4.07
2019-05-21T12:55:04.525Z,3.97
2019-05-21T12:57:35.221Z,3.90
2019-05-21T13:00:07.817Z,4.03
2019-05-21T13:02:38.203Z,4.80
2019-05-21T13:05:11.412Z,4.37
2019-05-21T13:07:40.563Z,4.40
2019-05-21T13:10:11.047Z,6.37
2019-05-21T13:12:41.534Z,5.33
2019-05-21T13:15:12.582Z,4.70
2019-05-21T13:17:42.830Z,3.87
2019-05-21T13:20:14.552Z,4.67
2019-05-21T13:22:44.980Z,3.87
2019-05-21T13:25:16.842Z,4.73
2019-05-21T13:27:47.570Z,5.03
2019-05-21T13:30:18.456Z,4.50
2019-05-21T13:32:49.020Z,5.00
2019-05-21T13:35:19.713Z,4.43
2019-05-21T13:37:51.615Z,4.70
2019-05-21T13:40:22.529Z,4.20
2019-05-21T13:42:53.124Z,4.50
2019-05-21T13:45:23.686Z,5.03
2019-05-21T13:47:55.510Z,4.37
2019-05-21T13:50:28.288Z,4.83
2019-05-21T13:52:58.537Z,5.30
2019-05-21T13:55:33.197Z,4.70
2019-05-21T13:58:01.107Z,4.13
2019-05-21T14:00:34.411Z,4.10
2019-05-21T14:03:05.876Z,4.63
2019-05-21T14:05:36.520Z,4.07
2019-05-21T14:08:06.929Z,4.73
2019-05-21T14:10:38.131Z,5.53
2019-05-21T14:13:08.720Z,5.37
2019-05-21T14:15:39.578Z,4.90
2019-05-21T14:18:09.999Z,6.47
2019-05-21T14:20:40.262Z,6.10
2019-05-21T14:23:10.691Z,5.20
2019-05-21T14:25:41.265Z,5.80
2019-05-21T14:28:11.808Z,4.83
2019-05-21T14:30:42.227Z,5.00
2019-05-21T14:33:12.628Z,5.47
2019-05-21T14:35:43.280Z,5.27
2019-05-21T14:38:13.566Z,7.53
2019-05-21T14:40:43.934Z,6.07
2019-05-21T14:43:14.580Z,5.10
2019-05-21T14:45:44.901Z,5.30
2019-05-21T14:48:15.365Z,8.00
2019-05-21T14:50:45.996Z,8.67
2019-05-21T14:53:16.347Z,7.83
2019-05-21T14:55:46.548Z,7.57
2019-05-21T14:58:17.035Z,9.93
2019-05-21T15:00:47.957Z,10.10
2019-05-21T15:03:25.408Z,9.40
2019-05-21T15:05:50.846Z,8.00
2019-05-21T15:08:21.042Z,7.37
2019-05-21T15:10:52.212Z,10.57
2019-05-21T15:13:22.420Z,8.00
2019-05-21T15:15:52.577Z,11.07
2019-05-21T15:18:23.004Z,8.20
2019-05-21T15:20:58.396Z,8.40
2019-05-21T15:23:28.967Z,10.30
2019-05-21T15:25:59.121Z,6.90
2019-05-21T15:28:29.483Z,8.80
2019-05-21T15:30:59.800Z,12.47
2019-05-21T15:33:30.065Z,8.70
2019-05-21T15:36:00.848Z,8.67
2019-05-21T15:38:48.476Z,8.50
2019-05-21T15:41:10.334Z,9.40
2019-05-21T15:43:35.216Z,9.10
2019-05-21T15:46:05.534Z,8.40
2019-05-21T15:48:36.000Z,9.40
2019-05-21T15:51:06.245Z,7.60
2019-05-21T15:53:36.649Z,9.23
2019-05-21T15:56:07.424Z,8.03
2019-05-21T15:58:38.074Z,8.70
2019-05-21T16:01:08.494Z,12.97
2019-05-21T16:03:38.945Z,8.50
2019-05-21T16:06:09.203Z,8.80
2019-05-21T16:08:39.638Z,8.30
2019-05-21T16:11:27.527Z,9.10
2019-05-21T16:13:42.060Z,8.93
2019-05-21T16:16:12.239Z,7.40
2019-05-21T16:18:43.886Z,7.67
2019-05-21T16:21:14.176Z,7.57
2019-05-21T16:23:44.966Z,6.80
2019-05-21T16:26:15.335Z,5.30
2019-05-21T16:28:46.553Z,6.60
2019-05-21T16:31:16.834Z,5.07
2019-05-21T16:33:47.360Z,4.40
2019-05-21T16:36:18.033Z,5.80
2019-05-21T16:38:48.223Z,6.43
2019-05-21T16:41:19.051Z,9.00
2019-05-21T16:43:49.355Z,4.90
2019-05-21T16:46:19.694Z,6.33
2019-05-21T16:48:50.010Z,5.53
2019-05-21T16:51:20.726Z,5.63
2019-05-21T16:53:51.265Z,6.00
2019-05-21T16:56:21.840Z,5.50
2019-05-21T16:58:52.170Z,5.67
2019-05-21T17:01:22.823Z,7.23
2019-05-21T17:03:59.806Z,7.00
2019-05-21T17:06:25.142Z,7.20
2019-05-21T17:08:55.521Z,6.63
2019-05-21T17:11:26.777Z,7.40
2019-05-21T17:13:57.751Z,7.50
2019-05-21T17:16:27.932Z,7.03
2019-05-21T17:18:58.088Z,7.10
2019-05-21T17:21:28.306Z,7.87
2019-05-21T17:23:58.555Z,7.67
2019-05-21T17:26:29.177Z,7.73
2019-05-21T17:29:00.720Z,6.90
2019-05-21T17:31:31.463Z,8.90
2019-05-21T17:34:01.705Z,12.83
2019-05-21T17:36:31.886Z,7.67
2019-05-21T17:39:05.344Z,7.93
2019-05-21T17:41:35.567Z,7.33
2019-05-21T17:44:05.886Z,7.27
2019-05-21T17:46:37.431Z,8.67
2019-05-21T17:49:07.642Z,14.30
2019-05-21T17:51:37.824Z,13.23
2019-05-21T17:54:08.062Z,8.60
2019-05-21T17:56:38.446Z,7.33
2019-05-21T17:59:08.633Z,6.30
2019-05-21T18:01:39.003Z,11.07
2019-05-21T18:04:09.279Z,7.83
2019-05-21T18:06:39.686Z,7.70
2019-05-21T18:09:13.599Z,7.57
2019-05-21T18:11:44.231Z,7.67
2019-05-21T18:14:14.392Z,12.70
2019-05-21T18:16:44.587Z,8.33
2019-05-21T18:19:16.026Z,8.80
2019-05-21T18:21:46.469Z,7.13
2019-05-21T18:24:16.789Z,8.70
2019-05-21T18:26:47.558Z,7.57
2019-05-21T18:29:17.769Z,8.10
2019-05-21T18:31:48.552Z,8.23
2019-05-21T18:34:18.860Z,7.10
2019-05-21T18:36:49.565Z,9.27
2019-05-21T18:39:20.638Z,6.73
2019-05-21T18:41:50.812Z,6.60
2019-05-21T18:44:21.145Z,7.20
2019-05-21T18:46:51.347Z,6.70
2019-05-21T18:49:21.968Z,7.17
2019-05-21T18:51:52.209Z,7.90
2019-05-21T18:54:22.441Z,7.70
2019-05-21T18:56:52.838Z,7.07
2019-05-21T18:59:23.152Z,8.67
2019-05-21T19:01:55.533Z,7.67
2019-05-21T19:04:25.964Z,9.20
2019-05-21T19:06:56.219Z,9.43
2019-05-21T19:09:26.674Z,8.57
2019-05-21T19:11:57.332Z,9.60
2019-05-21T19:14:27.465Z,8.77
2019-05-21T19:16:57.768Z,8.47
2019-05-21T19:19:27.940Z,8.70
2019-05-21T19:21:58.160Z,9.20
2019-05-21T19:24:28.655Z,9.20
2019-05-21T19:26:59.062Z,11.17
2019-05-21T19:29:29.428Z,8.97
2019-05-21T19:31:59.955Z,10.10
2019-05-21T19:34:30.183Z,17.50
2019-05-21T19:37:00.457Z,17.40
2019-05-21T19:39:31.839Z,10.70
2019-05-21T19:42:01.959Z,11.50
2019-05-21T19:44:32.162Z,11.40
2019-05-21T19:47:02.639Z,12.33
2019-05-21T19:49:33.092Z,15.33
2019-05-21T19:52:03.495Z,15.00
2019-05-21T19:54:34.065Z,14.67
2019-05-21T19:57:04.780Z,14.00
2019-05-21T19:59:34.894Z,13.17
2019-05-21T20:02:06.507Z,15.33
2019-05-21T20:04:37.323Z,14.23
2019-05-21T20:07:09.857Z,14.67
2019-05-21T20:09:39.976Z,13.20
2019-05-21T20:12:10.824Z,15.00
2019-05-21T20:14:41.516Z,14.47
2019-05-21T20:17:12.294Z,14.37
2019-05-21T20:19:43.862Z,15.50
2019-05-21T20:22:14.366Z,16.07
2019-05-21T20:24:45.859Z,16.60
2019-05-21T20:27:17.053Z,16.67
2019-05-21T20:29:47.974Z,15.23
2019-05-21T20:32:22.297Z,17.70
2019-05-21T20:34:53.078Z,16.07
2019-05-21T20:37:26.211Z,15.50
2019-05-21T20:39:57.840Z,13.40
2019-05-21T20:42:30.861Z,12.90
2019-05-21T20:45:02.527Z,11.30
2019-05-21T20:47:33.245Z,12.80
2019-05-21T20:50:07.142Z,12.30
2019-05-21T20:52:39.273Z,11.03
2019-05-21T20:55:10.275Z,9.80
2019-05-21T20:57:40.521Z,10.47
2019-05-21T21:00:13.347Z,11.47
2019-05-21T21:02:45.649Z,10.90
2019-05-21T21:05:16.987Z,10.80
2019-05-21T21:07:47.434Z,10.40
2019-05-21T21:10:18.385Z,8.83
2019-05-21T21:12:49.398Z,8.30
2019-05-21T21:15:20.185Z,7.10
2019-05-21T21:17:50.733Z,6.70
2019-05-21T21:20:21.172Z,9.10
2019-05-21T21:22:51.921Z,6.30
2019-05-21T21:25:24.240Z,7.80
2019-05-21T21:27:54.888Z,6.97
2019-05-21T21:30:25.630Z,7.57
2019-05-21T21:32:56.757Z,6.13
2019-05-21T21:35:27.164Z,7.10
2019-05-21T21:37:57.405Z,6.40
2019-05-21T21:40:27.823Z,6.90
2019-05-21T21:42:58.648Z,6.97
2019-05-21T21:45:29.833Z,7.33
2019-05-21T21:48:01.287Z,7.10
2019-05-21T21:50:32.825Z,6.77
2019-05-21T21:53:03.478Z,7.50
2019-05-21T21:55:34.011Z,7.10
2019-05-21T21:58:04.302Z,8.30
2019-05-21T22:01:20.636Z,6.97
2019-05-21T22:03:51.161Z,7.37
2019-05-21T22:06:23.312Z,7.37
2019-05-21T22:08:54.716Z,9.17
2019-05-21T22:11:25.074Z,8.73
2019-05-21T22:13:56.240Z,8.90
2019-05-21T22:16:26.526Z,8.90
2019-05-21T22:18:57.211Z,9.80
2019-05-21T22:21:27.786Z,9.13
2019-05-21T22:23:59.201Z,9.00
2019-05-21T22:26:30.194Z,8.73
2019-05-21T22:29:00.729Z,8.23
2019-05-21T22:31:31.024Z,8.13
2019-05-21T22:34:01.255Z,9.87
2019-05-21T22:36:31.659Z,9.47
2019-05-21T22:39:01.941Z,9.20
2019-05-21T22:41:33.806Z,10.10
2019-05-21T22:44:05.197Z,11.17
2019-05-21T22:46:35.470Z,11.10
2019-05-21T22:49:05.676Z,11.50
2019-05-21T22:51:35.950Z,12.17
2019-05-21T22:54:06.190Z,14.47
2019-05-21T22:56:36.470Z,14.40
2019-05-21T22:59:06.809Z,15.13
2019-05-21T23:01:37.925Z,15.80
2019-05-21T23:04:08.939Z,16.07
2019-05-21T23:06:39.241Z,16.50
2019-05-21T23:09:10.772Z,19.30
2019-05-21T23:11:40.935Z,17.80
2019-05-21T23:14:11.520Z,18.70
2019-05-21T23:16:44.020Z,17.97
2019-05-21T23:19:24.137Z,21.73
2019-05-21T23:21:56.623Z,21.10
2019-05-21T23:24:27.251Z,22.60
2019-05-21T23:26:57.658Z,21.70
2019-05-21T23:29:29.210Z,23.80
2019-05-21T23:31:59.373Z,25.90
2019-05-21T23:34:31.274Z,26.40
2019-05-21T23:37:02.773Z,27.63
2019-05-21T23:39:34.662Z,27.17
2019-05-21T23:42:07.612Z,28.87
2019-05-21T23:44:37.975Z,29.90
2019-05-21T23:47:12.637Z,30.30
2019-05-21T23:49:42.949Z,31.37
2019-05-21T23:52:14.519Z,31.67
2019-05-21T23:54:44.912Z,32.50
2019-05-21T23:57:20.503Z,30.73
2019-05-21T23:59:51.157Z,29.90
